Time;durP1;ratioP1;P1;durP2;ratioP2;P2;SDS_P1;SDS_P2;PMS_P1;PMS_P2;Temp;Humidity;BMP_temperature;BMP_pressure;BME280_temperature;BME280_humidity;BME280_pressure;Samples;Min_cycle;Max_cycle;Signal;HPM_P1;HPM_P2
2023/07/04 00:00:59;;;;;;;11.53;5.10;;;;;;;;;;6142524;23;20415;-78
2023/07/04 00:03:27;;;;;;;10.30;5.70;;;;;;;;;;6144244;23;20492;-79
2023/07/04 00:05:56;;;;;;;9.63;4.70;;;;;;;;;;6145649;23;20520;-80
2023/07/04 00:08:27;;;;;;;9.83;4.90;;;;;;;;;;6143047;23;20397;-80
2023/07/04 00:10:58;;;;;;;8.40;4.57;;;;;;;;;;6142612;23;20427;-79
2023/07/04 00:13:27;;;;;;;16.27;6.80;;;;;;;;;;6140984;23;20424;-79
2023/07/04 00:15:56;;;;;;;14.73;5.20;;;;;;;;;;6139926;23;20417;-81
2023/07/04 00:18:25;;;;;;;11.73;4.43;;;;;;;;;;6141978;23;20402;-79
2023/07/04 00:20:55;;;;;;;10.77;5.00;;;;;;;;;;6140532;23;20607;-80
2023/07/04 00:23:27;;;;;;;10.30;4.83;;;;;;;;;;6144596;23;20417;-79
2023/07/04 00:25:55;;;;;;;7.33;4.80;;;;;;;;;;6146235;23;20468;-80
2023/07/04 00:28:23;;;;;;;9.10;4.30;;;;;;;;;;6144825;23;20420;-80
2023/07/04 00:30:51;;;;;;;9.97;4.33;;;;;;;;;;6145552;23;20428;-79
2023/07/04 00:33:20;;;;;;;7.90;3.60;;;;;;;;;;6144848;23;20420;-81
2023/07/04 00:35:48;;;;;;;8.93;4.07;;;;;;;;;;6140773;23;20424;-78
2023/07/04 00:38:19;;;;;;;7.23;3.10;;;;;;;;;;6141217;23;20401;-78
2023/07/04 00:40:50;;;;;;;5.30;2.97;;;;;;;;;;6138960;23;20471;-79
2023/07/04 00:43:18;;;;;;;6.60;3.17;;;;;;;;;;6137782;23;20433;-82
2023/07/04 00:45:48;;;;;;;7.00;3.27;;;;;;;;;;6134781;23;20452;-80
2023/07/04 00:48:17;;;;;;;7.80;3.20;;;;;;;;;;6138082;23;20421;-81
2023/07/04 00:50:49;;;;;;;7.10;3.10;;;;;;;;;;6136989;23;20431;-80
2023/07/04 00:53:17;;;;;;;7.40;2.70;;;;;;;;;;6141671;23;20416;-80
2023/07/04 00:55:49;;;;;;;4.80;2.00;;;;;;;;;;6142288;23;20421;-80
2023/07/04 00:58:17;;;;;;;5.97;2.07;;;;;;;;;;6141690;23;20412;-78
2023/07/04 01:00:45;;;;;;;3.40;1.60;;;;;;;;;;6142427;23;20451;-79
2023/07/04 01:03:14;;;;;;;5.37;2.20;;;;;;;;;;6143313;23;20404;-80
2023/07/04 01:05:45;;;;;;;5.80;1.73;;;;;;;;;;6146059;23;20428;-79
2023/07/04 01:08:18;;;;;;;4.30;1.60;;;;;;;;;;6145696;23;20452;-79
2023/07/04 01:10:47;;;;;;;4.13;1.43;;;;;;;;;;6142905;23;20684;-78
2023/07/04 01:13:33;;;;;;;3.90;1.10;;;;;;;;;;6143710;23;20427;-79
2023/07/04 01:16:01;;;;;;;5.77;1.40;;;;;;;;;;6136608;23;20400;-79
2023/07/04 01:18:29;;;;;;;4.90;1.70;;;;;;;;;;6140441;23;20417;-78
2023/07/04 01:20:57;;;;;;;2.80;1.10;;;;;;;;;;6138196;23;20417;-80
2023/07/04 01:23:32;;;;;;;2.87;1.10;;;;;;;;;;6138437;23;20431;-79
2023/07/04 01:26:04;;;;;;;6.00;1.20;;;;;;;;;;6137251;23;20444;-79
2023/07/04 01:28:33;;;;;;;2.80;0.90;;;;;;;;;;6142766;23;20410;-77
2023/07/04 01:31:00;;;;;;;5.57;1.40;;;;;;;;;;6144023;23;20389;-80
2023/07/04 01:33:28;;;;;;;3.40;1.30;;;;;;;;;;6138284;23;20420;-78
2023/07/04 01:35:56;;;;;;;4.33;1.00;;;;;;;;;;6135675;23;20418;-79
2023/07/04 01:38:23;;;;;;;5.70;0.90;;;;;;;;;;6136967;23;20421;-78
2023/07/04 01:40:51;;;;;;;9.03;1.10;;;;;;;;;;6133206;23;20420;-79
2023/07/04 01:43:19;;;;;;;4.47;1.30;;;;;;;;;;6133576;23;20473;-79
2023/07/04 01:45:47;;;;;;;2.60;0.83;;;;;;;;;;6135794;23;20691;-80
2023/07/04 01:48:15;;;;;;;2.90;1.13;;;;;;;;;;6137127;23;20425;-80
2023/07/04 01:50:42;;;;;;;4.63;1.53;;;;;;;;;;6135426;23;20698;-80
2023/07/04 01:53:10;;;;;;;4.17;1.40;;;;;;;;;;6137539;23;20433;-79
2023/07/04 01:55:38;;;;;;;3.50;0.90;;;;;;;;;;6138093;23;20394;-80
2023/07/04 01:58:05;;;;;;;3.60;1.07;;;;;;;;;;6140988;23;20436;-79
2023/07/04 02:00:33;;;;;;;3.53;1.00;;;;;;;;;;6141216;23;20420;-77
2023/07/04 02:03:02;;;;;;;3.17;1.07;;;;;;;;;;6139179;23;20429;-79
2023/07/04 02:05:30;;;;;;;2.97;1.03;;;;;;;;;;6139537;23;20460;-80
2023/07/04 02:07:58;;;;;;;3.43;1.10;;;;;;;;;;6139298;23;20673;-78
2023/07/04 02:10:26;;;;;;;3.60;1.00;;;;;;;;;;6138184;23;20695;-79
2023/07/04 02:12:53;;;;;;;6.43;1.23;;;;;;;;;;6138798;23;20417;-77
2023/07/04 02:15:22;;;;;;;2.87;0.90;;;;;;;;;;6137219;23;20413;-78
2023/07/04 02:17:49;;;;;;;5.57;1.53;;;;;;;;;;6139958;23;20467;-79
2023/07/04 02:20:19;;;;;;;6.83;1.30;;;;;;;;;;6139130;23;20465;-80
2023/07/04 02:22:49;;;;;;;8.73;1.53;;;;;;;;;;6138936;23;20448;-80
2023/07/04 02:25:17;;;;;;;5.97;1.20;;;;;;;;;;6138354;23;20413;-80
2023/07/04 02:27:45;;;;;;;4.30;1.00;;;;;;;;;;6137231;23;20413;-81
2023/07/04 02:30:13;;;;;;;3.90;1.13;;;;;;;;;;6134225;23;20405;-79
2023/07/04 02:32:51;;;;;;;4.10;1.07;;;;;;;;;;6135124;23;20423;-80
2023/07/04 02:35:20;;;;;;;3.30;0.90;;;;;;;;;;6135135;23;20405;-81
2023/07/04 02:37:47;;;;;;;3.07;1.17;;;;;;;;;;6135285;23;20409;-79
2023/07/04 02:40:17;;;;;;;5.00;1.47;;;;;;;;;;6132544;23;20425;-79
2023/07/04 02:42:45;;;;;;;3.07;1.17;;;;;;;;;;6133936;23;20499;-79
2023/07/04 02:45:13;;;;;;;3.90;1.13;;;;;;;;;;6134124;23;20863;-80
2023/07/04 02:47:41;;;;;;;5.00;1.27;;;;;;;;;;6135595;23;20431;-77
2023/07/04 02:50:08;;;;;;;4.63;1.00;;;;;;;;;;6132746;23;20721;-79
2023/07/04 02:52:37;;;;;;;5.33;1.67;;;;;;;;;;6135731;23;20500;-80
2023/07/04 02:55:05;;;;;;;3.10;1.10;;;;;;;;;;6133158;23;20432;-79
2023/07/04 02:57:33;;;;;;;4.87;1.10;;;;;;;;;;6134168;23;20413;-79
2023/07/04 03:00:01;;;;;;;5.20;0.97;;;;;;;;;;6134591;23;20460;-79
2023/07/04 03:02:31;;;;;;;4.93;1.63;;;;;;;;;;6132869;23;20428;-79
2023/07/04 03:04:59;;;;;;;5.60;1.70;;;;;;;;;;6136571;23;20862;-79
2023/07/04 03:07:27;;;;;;;6.73;1.30;;;;;;;;;;6143762;23;21058;-80
2023/07/04 03:09:55;;;;;;;6.80;1.60;;;;;;;;;;6142914;23;20444;-78
2023/07/04 03:12:23;;;;;;;3.33;1.00;;;;;;;;;;6137896;23;20394;-80
2023/07/04 03:14:51;;;;;;;6.00;1.57;;;;;;;;;;6134157;23;20416;-81
2023/07/04 03:17:18;;;;;;;6.60;1.33;;;;;;;;;;6136514;23;20417;-80
2023/07/04 03:19:46;;;;;;;4.47;1.50;;;;;;;;;;6138926;23;20441;-79
2023/07/04 03:22:14;;;;;;;6.33;1.90;;;;;;;;;;6137211;23;20413;-79
2023/07/04 03:24:41;;;;;;;7.67;1.97;;;;;;;;;;6136474;23;20417;-80
2023/07/04 03:27:18;;;;;;;5.00;2.13;;;;;;;;;;6135018;23;20429;-78
2023/07/04 03:29:45;;;;;;;8.57;2.17;;;;;;;;;;6134599;23;20401;-79
2023/07/04 03:32:12;;;;;;;4.23;1.90;;;;;;;;;;6133375;23;20452;-78
2023/07/04 03:34:40;;;;;;;4.67;2.10;;;;;;;;;;6133666;23;20495;-80
2023/07/04 03:37:07;;;;;;;4.80;2.20;;;;;;;;;;6134969;23;20440;-80
2023/07/04 03:39:35;;;;;;;3.80;1.90;;;;;;;;;;6133294;23;20853;-78
2023/07/04 03:42:02;;;;;;;5.93;1.97;;;;;;;;;;6137534;23;20460;-79
2023/07/04 03:44:31;;;;;;;5.47;1.97;;;;;;;;;;6138916;23;20741;-80
2023/07/04 03:46:58;;;;;;;8.27;3.10;;;;;;;;;;6138982;23;20728;-79
2023/07/04 03:49:26;;;;;;;8.40;3.20;;;;;;;;;;6135699;23;20696;-79
2023/07/04 03:51:54;;;;;;;4.13;1.70;;;;;;;;;;6137342;23;20401;-80
2023/07/04 03:54:21;;;;;;;10.43;2.50;;;;;;;;;;6140551;23;20445;-80
2023/07/04 03:56:56;;;;;;;6.97;2.40;;;;;;;;;;6139203;23;20415;-79
2023/07/04 03:59:26;;;;;;;9.77;2.37;;;;;;;;;;6136733;23;20397;-79
2023/07/04 04:01:55;;;;;;;8.00;2.27;;;;;;;;;;6136837;23;20428;-78
2023/07/04 04:04:23;;;;;;;7.37;2.57;;;;;;;;;;6135583;23;20392;-80
2023/07/04 04:06:58;;;;;;;9.93;2.33;;;;;;;;;;6138502;23;20537;-80
2023/07/04 04:09:45;;;;;;;6.27;2.70;;;;;;;;;;6136830;23;20417;-80
2023/07/04 04:12:13;;;;;;;8.80;2.77;;;;;;;;;;6136562;23;20400;-80
2023/07/04 04:14:43;;;;;;;5.60;2.50;;;;;;;;;;6139275;23;20425;-80
2023/07/04 04:17:13;;;;;;;4.80;1.90;;;;;;;;;;6137522;23;20378;-79
2023/07/04 04:19:40;;;;;;;7.63;2.33;;;;;;;;;;6137115;23;20457;-79
2023/07/04 04:22:14;;;;;;;4.60;2.03;;;;;;;;;;6137491;23;20407;-79
2023/07/04 04:24:43;;;;;;;13.30;2.40;;;;;;;;;;6137429;23;20440;-79
2023/07/04 04:27:12;;;;;;;4.90;2.30;;;;;;;;;;6134496;23;20456;-81
2023/07/04 04:29:40;;;;;;;8.50;2.67;;;;;;;;;;6135463;23;20440;-79
2023/07/04 04:32:07;;;;;;;7.50;3.00;;;;;;;;;;6138948;23;20464;-79
2023/07/04 04:34:36;;;;;;;5.93;2.70;;;;;;;;;;6139720;23;20400;-79
2023/07/04 04:37:04;;;;;;;4.90;2.20;;;;;;;;;;6141379;23;20446;-79
2023/07/04 04:39:32;;;;;;;5.97;2.50;;;;;;;;;;6138020;23;20415;-79
2023/07/04 04:42:00;;;;;;;4.93;2.00;;;;;;;;;;6137741;23;20409;-78
2023/07/04 04:44:33;;;;;;;7.03;2.83;;;;;;;;;;6138200;23;20436;-79
2023/07/04 04:47:05;;;;;;;7.93;2.20;;;;;;;;;;6139035;23;20519;-78
2023/07/04 04:49:32;;;;;;;6.20;2.77;;;;;;;;;;6136275;23;20463;-79
2023/07/04 04:52:05;;;;;;;10.70;2.60;;;;;;;;;;6135983;23;20416;-78
2023/07/04 04:54:34;;;;;;;7.20;2.23;;;;;;;;;;6133012;23;20435;-79
2023/07/04 04:57:04;;;;;;;6.97;2.77;;;;;;;;;;6133183;23;20455;-79
2023/07/04 04:59:31;;;;;;;7.10;2.30;;;;;;;;;;6134422;23;20423;-79
2023/07/04 05:01:59;;;;;;;8.77;2.70;;;;;;;;;;6135930;23;20393;-78
2023/07/04 05:04:27;;;;;;;5.47;2.13;;;;;;;;;;6137468;23;20504;-78
2023/07/04 05:06:54;;;;;;;6.87;2.20;;;;;;;;;;6139211;23;20487;-80
2023/07/04 05:09:23;;;;;;;11.23;2.87;;;;;;;;;;6138607;23;20393;-78
2023/07/04 05:11:56;;;;;;;8.93;3.23;;;;;;;;;;6137167;23;20688;-80
2023/07/04 05:14:24;;;;;;;8.53;2.57;;;;;;;;;;6134395;23;20715;-79
2023/07/04 05:16:54;;;;;;;9.93;3.40;;;;;;;;;;6135498;23;20479;-80
2023/07/04 05:19:22;;;;;;;8.10;2.70;;;;;;;;;;6131213;23;20940;-80
2023/07/04 05:21:50;;;;;;;6.87;2.10;;;;;;;;;;6131740;23;20413;-78
2023/07/04 05:24:17;;;;;;;6.03;2.20;;;;;;;;;;6133884;23;20404;-78
2023/07/04 05:26:46;;;;;;;4.00;1.90;;;;;;;;;;6133930;23;20428;-79
2023/07/04 05:29:14;;;;;;;8.23;2.40;;;;;;;;;;6137913;23;20487;-79
2023/07/04 05:31:41;;;;;;;8.50;1.70;;;;;;;;;;6138488;23;20413;-79
2023/07/04 05:34:08;;;;;;;5.77;1.73;;;;;;;;;;6136188;23;20436;-79
2023/07/04 05:36:37;;;;;;;19.67;8.80;;;;;;;;;;6138372;23;20419;-79
2023/07/04 05:39:06;;;;;;;5.90;1.97;;;;;;;;;;6141801;23;20404;-79
2023/07/04 05:41:34;;;;;;;6.47;2.23;;;;;;;;;;6141187;23;20504;-80
2023/07/04 05:44:04;;;;;;;8.40;2.07;;;;;;;;;;6139853;23;20436;-79
2023/07/04 05:46:32;;;;;;;7.53;2.93;;;;;;;;;;6139224;23;20443;-81
2023/07/04 05:49:00;;;;;;;4.97;2.13;;;;;;;;;;6143816;23;20782;-78
2023/07/04 05:51:28;;;;;;;15.70;2.70;;;;;;;;;;6142482;23;20782;-80
2023/07/04 05:53:59;;;;;;;5.97;2.07;;;;;;;;;;6142087;23;20488;-79
2023/07/04 05:56:28;;;;;;;7.77;2.33;;;;;;;;;;6139302;23;20677;-78
2023/07/04 05:58:56;;;;;;;8.70;2.43;;;;;;;;;;6144344;23;20669;-80
2023/07/04 06:01:27;;;;;;;5.37;2.03;;;;;;;;;;6144100;23;20445;-80
2023/07/04 06:03:58;;;;;;;3.50;1.33;;;;;;;;;;6143816;23;20487;-80
2023/07/04 06:06:28;;;;;;;6.60;1.80;;;;;;;;;;6142352;23;20428;-79
2023/07/04 06:08:56;;;;;;;4.50;2.30;;;;;;;;;;6138788;23;20397;-79
2023/07/04 06:11:26;;;;;;;8.70;2.20;;;;;;;;;;6136241;23;20419;-80
2023/07/04 06:13:57;;;;;;;4.70;1.90;;;;;;;;;;6138430;23;20488;-80
2023/07/04 06:16:28;;;;;;;4.47;1.80;;;;;;;;;;6138481;23;20435;-79
2023/07/04 06:18:55;;;;;;;3.90;1.70;;;;;;;;;;6141114;23;20405;-79
2023/07/04 06:21:24;;;;;;;7.10;1.90;;;;;;;;;;6140648;23;20510;-80
2023/07/04 06:23:54;;;;;;;7.00;4.23;;;;;;;;;;6136514;23;20391;-80
2023/07/04 06:26:21;;;;;;;6.40;1.80;;;;;;;;;;6137216;23;20405;-81
2023/07/04 06:28:50;;;;;;;4.40;1.53;;;;;;;;;;6140449;23;20479;-79
2023/07/04 06:31:18;;;;;;;7.73;2.17;;;;;;;;;;6139340;23;20392;-80
2023/07/04 06:33:47;;;;;;;5.40;1.60;;;;;;;;;;6134075;23;20403;-80
2023/07/04 06:36:16;;;;;;;5.50;2.10;;;;;;;;;;6132284;23;20419;-80
2023/07/04 06:38:44;;;;;;;4.47;1.23;;;;;;;;;;6131372;23;20413;-80
2023/07/04 06:41:12;;;;;;;5.80;1.47;;;;;;;;;;6128559;23;20492;-80
2023/07/04 06:43:43;;;;;;;4.33;1.30;;;;;;;;;;6127408;23;20452;-79
2023/07/04 06:46:11;;;;;;;5.03;1.70;;;;;;;;;;6129424;23;20436;-82
2023/07/04 06:48:38;;;;;;;6.63;1.73;;;;;;;;;;6133286;23;20906;-80
2023/07/04 06:51:08;;;;;;;4.73;2.10;;;;;;;;;;6132238;23;20445;-81
2023/07/04 06:53:36;;;;;;;5.83;1.70;;;;;;;;;;6133387;23;20492;-79
2023/07/04 06:56:08;;;;;;;6.47;2.10;;;;;;;;;;6135215;23;20682;-80
2023/07/04 06:58:36;;;;;;;6.30;1.30;;;;;;;;;;6136266;23;20421;-81
2023/07/04 07:01:04;;;;;;;4.97;1.80;;;;;;;;;;6135155;23;20393;-79
2023/07/04 07:03:32;;;;;;;6.60;1.83;;;;;;;;;;6135332;23;20408;-79
2023/07/04 07:06:04;;;;;;;8.50;1.50;;;;;;;;;;6137382;23;20409;-80
2023/07/04 07:08:33;;;;;;;5.13;1.27;;;;;;;;;;6139125;23;20496;-81
2023/07/04 07:11:03;;;;;;;7.83;1.87;;;;;;;;;;6136740;23;20417;-80
2023/07/04 07:13:32;;;;;;;6.53;1.27;;;;;;;;;;6136870;23;20782;-79
2023/07/04 07:16:07;;;;;;;5.47;1.20;;;;;;;;;;6137441;23;20399;-79
2023/07/04 07:18:34;;;;;;;3.20;1.03;;;;;;;;;;6134718;23;20416;-80
2023/07/04 07:21:08;;;;;;;3.87;1.50;;;;;;;;;;6134679;23;20487;-82
2023/07/04 07:23:44;;;;;;;7.00;1.60;;;;;;;;;;6135694;23;20408;-79
2023/07/04 07:26:13;;;;;;;3.07;1.20;;;;;;;;;;6132508;23;20420;-80
2023/07/04 07:28:42;;;;;;;5.07;1.83;;;;;;;;;;6137583;23;20449;-80
2023/07/04 07:31:18;;;;;;;5.87;1.57;;;;;;;;;;6136844;23;20384;-77
2023/07/04 07:33:48;;;;;;;5.20;1.80;;;;;;;;;;6133559;23;20401;-77
2023/07/04 07:36:26;;;;;;;3.30;1.03;;;;;;;;;;6132744;23;20412;-79
2023/07/04 07:41:37;;;;;;;3.40;1.47;;;;;;;;;;6138060;23;20477;-82
2023/07/04 07:44:07;;;;;;;8.33;1.67;;;;;;;;;;6133761;23;20424;-79
2023/07/04 07:46:35;;;;;;;4.07;1.00;;;;;;;;;;6135484;23;20421;-79
2023/07/04 07:49:03;;;;;;;3.30;1.10;;;;;;;;;;6140430;23;20540;-78
2023/07/04 07:51:31;;;;;;;6.90;1.43;;;;;;;;;;6135053;23;20425;-78
2023/07/04 07:54:02;;;;;;;6.10;3.10;;;;;;;;;;6131768;23;20401;-78
2023/07/04 07:56:40;;;;;;;3.73;1.40;;;;;;;;;;6135764;23;20548;-78
2023/07/04 07:59:10;;;;;;;4.47;1.20;;;;;;;;;;6139532;23;20404;-77
2023/07/04 08:07:20;;;;;;;4.07;1.30;;;;;;;;;;6185859;23;20819;-73
2023/07/04 08:10:00;;;;;;;4.27;1.60;;;;;;;;;;6186556;23;20391;-74
2023/07/04 08:13:03;;;;;;;4.27;1.27;;;;;;;;;;6183321;23;20449;-74
2023/07/04 08:21:24;;;;;;;3.53;1.10;;;;;;;;;;6204102;23;20448;-73
2023/07/04 08:27:39;;;;;;;5.07;1.30;;;;;;;;;;6190882;23;20398;-74
2023/07/04 08:30:13;;;;;;;4.10;1.27;;;;;;;;;;6214447;23;20464;-73
2023/07/04 08:39:36;;;;;;;3.10;0.97;;;;;;;;;;6124482;23;20396;-73
2023/07/04 08:42:18;;;;;;;3.07;0.90;;;;;;;;;;6125083;23;20731;-72
2023/07/04 08:44:47;;;;;;;4.30;1.00;;;;;;;;;;6163451;23;20451;-79
2023/07/04 08:47:17;;;;;;;3.37;1.10;;;;;;;;;;6199379;23;20443;-79
2023/07/04 08:49:52;;;;;;;5.43;1.40;;;;;;;;;;6193345;23;20426;-79
2023/07/04 08:52:27;;;;;;;3.90;1.10;;;;;;;;;;6196646;23;20687;-79
2023/07/04 08:58:07;;;;;;;3.50;1.10;;;;;;;;;;6201283;23;20407;-78
2023/07/04 09:00:42;;;;;;;14.57;1.90;;;;;;;;;;6199496;23;20410;-78
2023/07/04 09:03:18;;;;;;;4.10;1.13;;;;;;;;;;6201235;23;20410;-80
2023/07/04 09:05:55;;;;;;;4.00;1.60;;;;;;;;;;6202559;23;20414;-78
2023/07/04 09:08:30;;;;;;;4.30;1.33;;;;;;;;;;6201403;23;20438;-78
2023/07/04 09:11:06;;;;;;;5.63;1.73;;;;;;;;;;6202092;23;20871;-79
2023/07/04 09:14:03;;;;;;;4.00;1.50;;;;;;;;;;6200149;23;20486;-80
2023/07/04 09:16:35;;;;;;;7.10;1.70;;;;;;;;;;6201208;23;20529;-79
2023/07/04 09:19:06;;;;;;;5.90;1.80;;;;;;;;;;6202573;23;20557;-79
2023/07/04 09:21:36;;;;;;;4.40;0.80;;;;;;;;;;6201801;23;20423;-78
2023/07/04 09:24:08;;;;;;;8.43;1.40;;;;;;;;;;6196165;23;20418;-79
2023/07/04 09:26:49;;;;;;;3.33;1.00;;;;;;;;;;6196730;23;20419;-79
2023/07/04 09:29:24;;;;;;;3.43;1.07;;;;;;;;;;6198054;23;20423;-79
2023/07/04 09:31:58;;;;;;;2.67;0.83;;;;;;;;;;6199520;23;20392;-77
2023/07/04 09:34:42;;;;;;;6.87;1.30;;;;;;;;;;6201273;23;20407;-79
2023/07/04 09:37:15;;;;;;;2.50;0.80;;;;;;;;;;6196671;23;20405;-79
2023/07/04 09:39:46;;;;;;;3.83;0.90;;;;;;;;;;6200297;23;20427;-78
2023/07/04 09:42:17;;;;;;;4.40;1.90;;;;;;;;;;6203148;23;20407;-78
2023/07/04 09:44:47;;;;;;;2.73;0.97;;;;;;;;;;6200423;23;20451;-80
2023/07/04 09:47:22;;;;;;;2.90;0.80;;;;;;;;;;6199879;23;20426;-79
2023/07/04 09:50:08;;;;;;;2.77;1.00;;;;;;;;;;6202770;23;20391;-79
2023/07/04 09:52:38;;;;;;;4.33;0.83;;;;;;;;;;6202204;23;20439;-81
2023/07/04 09:55:13;;;;;;;3.00;0.80;;;;;;;;;;6201415;23;20410;-79
2023/07/04 09:57:46;;;;;;;5.00;2.07;;;;;;;;;;6202252;23;20442;-79
2023/07/04 10:00:22;;;;;;;4.70;2.17;;;;;;;;;;6199414;23;20486;-78
2023/07/04 10:02:54;;;;;;;2.50;0.80;;;;;;;;;;6199964;23;20494;-77
2023/07/04 10:05:27;;;;;;;4.53;1.20;;;;;;;;;;6202258;23;20396;-80
2023/07/04 10:08:03;;;;;;;4.17;0.77;;;;;;;;;;6202634;23;20431;-79
2023/07/04 10:10:35;;;;;;;4.03;1.60;;;;;;;;;;6199312;23;20470;-78
2023/07/04 10:13:06;;;;;;;4.20;1.30;;;;;;;;;;6197596;23;20387;-79
2023/07/04 10:15:37;;;;;;;3.10;1.10;;;;;;;;;;6198141;23;20449;-79
2023/07/04 10:18:05;;;;;;;3.27;0.70;;;;;;;;;;6197039;23;20686;-79
2023/07/04 10:20:37;;;;;;;3.63;1.13;;;;;;;;;;6196910;23;20678;-79
2023/07/04 10:23:05;;;;;;;4.43;1.10;;;;;;;;;;6196908;23;20414;-78
2023/07/04 10:25:38;;;;;;;5.30;1.10;;;;;;;;;;6195551;23;20551;-80
2023/07/04 10:28:13;;;;;;;4.43;0.70;;;;;;;;;;6198850;23;20431;-78
2023/07/04 10:30:44;;;;;;;4.87;1.10;;;;;;;;;;6198563;23;20529;-79
2023/07/04 10:33:19;;;;;;;4.30;1.13;;;;;;;;;;6202433;23;20418;-79
2023/07/04 10:35:47;;;;;;;4.40;1.73;;;;;;;;;;6196321;23;20407;-79
2023/07/04 10:38:26;;;;;;;4.27;0.93;;;;;;;;;;6197403;23;20409;-78
2023/07/04 10:40:59;;;;;;;4.20;0.90;;;;;;;;;;6195271;23;20470;-78
2023/07/04 10:43:32;;;;;;;4.90;1.60;;;;;;;;;;6202367;23;20415;-80
2023/07/04 10:46:01;;;;;;;3.57;1.30;;;;;;;;;;6201570;23;20411;-79
2023/07/04 10:48:32;;;;;;;2.80;1.00;;;;;;;;;;6191162;23;20493;-77
2023/07/04 10:51:02;;;;;;;5.27;1.53;;;;;;;;;;6197036;23;20512;-79
2023/07/04 10:53:40;;;;;;;3.80;1.00;;;;;;;;;;6171751;23;20508;-79
2023/07/04 10:56:10;;;;;;;3.80;0.80;;;;;;;;;;6197208;23;20419;-77
2023/07/04 10:58:43;;;;;;;3.10;1.10;;;;;;;;;;6199145;23;20417;-79
2023/07/04 11:01:14;;;;;;;5.90;0.97;;;;;;;;;;6196112;23;20923;-81
2023/07/04 11:03:45;;;;;;;3.70;1.97;;;;;;;;;;6195631;23;20966;-80
2023/07/04 11:06:25;;;;;;;3.33;0.90;;;;;;;;;;6197259;23;20498;-79
2023/07/04 11:09:21;;;;;;;2.60;1.03;;;;;;;;;;6200610;23;20447;-79
2023/07/04 11:11:55;;;;;;;3.97;0.90;;;;;;;;;;6197169;23;20521;-79
2023/07/04 11:14:26;;;;;;;5.27;0.80;;;;;;;;;;6198395;23;20838;-79
2023/07/04 11:16:55;;;;;;;2.60;0.73;;;;;;;;;;6201652;23;20410;-79
2023/07/04 11:19:25;;;;;;;2.90;0.87;;;;;;;;;;6199737;23;20418;-79
2023/07/04 11:22:10;;;;;;;4.10;1.10;;;;;;;;;;6196130;23;20443;-79
2023/07/04 11:24:39;;;;;;;5.43;1.03;;;;;;;;;;6200985;23;20410;-79
2023/07/04 11:27:20;;;;;;;5.67;1.10;;;;;;;;;;6198236;23;20411;-81
2023/07/04 11:29:55;;;;;;;7.50;1.20;;;;;;;;;;6196085;23;20534;-78
2023/07/04 11:32:27;;;;;;;4.60;1.23;;;;;;;;;;6199381;23;20425;-78
2023/07/04 11:34:56;;;;;;;3.73;1.47;;;;;;;;;;6201134;23;20384;-79
2023/07/04 11:37:31;;;;;;;5.47;1.10;;;;;;;;;;6197099;23;20458;-78
2023/07/04 11:40:02;;;;;;;6.13;2.37;;;;;;;;;;6201121;23;20449;-77
2023/07/04 11:42:40;;;;;;;4.23;1.00;;;;;;;;;;6199010;23;20473;-79
2023/07/04 11:45:15;;;;;;;4.40;1.20;;;;;;;;;;6192429;23;20440;-77
2023/07/04 11:47:50;;;;;;;8.17;1.20;;;;;;;;;;6193858;23;20820;-79
2023/07/04 11:50:20;;;;;;;3.37;1.07;;;;;;;;;;6195076;23;20383;-78
2023/07/04 11:52:53;;;;;;;3.60;1.00;;;;;;;;;;6193472;23;20415;-80
2023/07/04 11:55:24;;;;;;;6.40;0.80;;;;;;;;;;6196765;23;20423;-77
2023/07/04 11:58:00;;;;;;;3.70;1.03;;;;;;;;;;6201681;23;20414;-80
2023/07/04 12:00:44;;;;;;;7.67;1.20;;;;;;;;;;6199878;23;20406;-79
2023/07/04 12:03:26;;;;;;;3.90;0.87;;;;;;;;;;6170975;23;20391;-80
2023/07/04 12:05:56;;;;;;;4.27;1.17;;;;;;;;;;6199856;23;20410;-79
2023/07/04 12:08:26;;;;;;;4.10;0.97;;;;;;;;;;6201773;23;20493;-78
2023/07/04 12:10:57;;;;;;;2.90;0.93;;;;;;;;;;6198287;23;20493;-79
2023/07/04 12:13:28;;;;;;;3.93;0.90;;;;;;;;;;6197524;23;20442;-79
2023/07/04 12:15:57;;;;;;;4.30;0.80;;;;;;;;;;6196021;23;20415;-79
2023/07/04 12:18:26;;;;;;;4.93;1.10;;;;;;;;;;6195112;23;20489;-79
2023/07/04 12:20:55;;;;;;;4.30;1.03;;;;;;;;;;6193424;23;20422;-78
2023/07/04 12:23:23;;;;;;;5.30;1.00;;;;;;;;;;6195828;23;20403;-79
2023/07/04 12:25:51;;;;;;;3.23;1.00;;;;;;;;;;6196534;23;20614;-80
2023/07/04 12:28:25;;;;;;;3.63;0.90;;;;;;;;;;6198633;23;20446;-79
2023/07/04 12:30:54;;;;;;;3.77;1.10;;;;;;;;;;6196274;23;20483;-80
2023/07/04 12:41:43;;;;;;;4.10;0.80;;;;;;;;;;6087449;23;20896;-72
2023/07/04 12:44:14;;;;;;;6.10;1.50;;;;;;;;;;6179541;23;20912;-80
2023/07/04 12:46:46;;;;;;;4.23;1.00;;;;;;;;;;6166158;23;20412;-80
2023/07/04 12:49:17;;;;;;;3.20;1.00;;;;;;;;;;6166048;23;20451;-80
2023/07/04 12:51:47;;;;;;;7.20;1.10;;;;;;;;;;6165699;23;20403;-83
2023/07/04 12:54:16;;;;;;;4.00;1.63;;;;;;;;;;6164642;23;20635;-80
2023/07/04 12:56:47;;;;;;;4.23;1.03;;;;;;;;;;6165470;23;20427;-79
2023/07/04 12:59:40;;;;;;;3.13;0.90;;;;;;;;;;6165027;23;20673;-82
2023/07/04 13:02:14;;;;;;;6.90;1.70;;;;;;;;;;6162519;23;20416;-79
2023/07/04 13:04:41;;;;;;;5.20;0.93;;;;;;;;;;6166378;23;20427;-80
2023/07/04 13:07:11;;;;;;;5.70;1.30;;;;;;;;;;6163522;23;20427;-78
2023/07/04 13:09:44;;;;;;;2.70;0.70;;;;;;;;;;6168031;23;20416;-80
2023/07/04 13:12:14;;;;;;;3.07;1.00;;;;;;;;;;6168822;23;20407;-80
2023/07/04 13:14:49;;;;;;;3.00;0.70;;;;;;;;;;6171047;23;20439;-80
2023/07/04 13:17:31;;;;;;;3.67;1.53;;;;;;;;;;6167115;23;21126;-79
2023/07/04 13:19:59;;;;;;;4.37;1.00;;;;;;;;;;6170082;23;20415;-80
2023/07/04 13:22:27;;;;;;;5.00;1.23;;;;;;;;;;6168147;23;20467;-78
2023/07/04 13:24:55;;;;;;;2.43;0.70;;;;;;;;;;6168555;23;20408;-79
2023/07/04 13:27:29;;;;;;;3.70;1.00;;;;;;;;;;6170662;23;20408;-82
2023/07/04 13:30:06;;;;;;;4.10;1.57;;;;;;;;;;6174092;23;20443;-80
2023/07/04 13:32:48;;;;;;;5.60;2.47;;;;;;;;;;6169401;23;20419;-80
2023/07/04 13:35:23;;;;;;;3.80;1.20;;;;;;;;;;6169711;23;20415;-78
2023/07/04 13:38:10;;;;;;;3.93;0.93;;;;;;;;;;6175670;23;20415;-77
2023/07/04 13:40:45;;;;;;;3.63;1.20;;;;;;;;;;6165912;23;20726;-79
2023/07/04 13:43:19;;;;;;;3.70;1.37;;;;;;;;;;6167772;23;20407;-80
